Time;durP1;ratioP1;P1;durP2;ratioP2;P2;SDS_P1;SDS_P2;PMS_P1;PMS_P2;Temp;Humidity;BMP_temperature;BMP_pressure;BME280_temperature;BME280_humidity;BME280_pressure;Samples;Min_cycle;Max_cycle;Signal;HPM_P1;HPM_P2
2023/06/15 00:00:10;;;;;;;0.40;0.40;;;;;;;15.48;55.83;96765.19;29395;204;63009;-51
2023/06/15 00:00:42;;;;;;;0.40;0.40;;;;;;;15.46;56.04;96767.44;29395;213;63004;-50
2023/06/15 00:01:14;;;;;;;0.40;0.40;;;;;;;15.46;55.66;96772.91;29395;202;63008;-51
2023/06/15 00:01:46;;;;;;;0.40;0.40;;;;;;;15.47;55.65;96771.78;29395;220;63005;-51
2023/06/15 00:02:17;;;;;;;0.40;0.40;;;;;;;15.47;55.49;96763.59;29394;269;64009;-51
2023/06/15 00:02:49;;;;;;;0.40;0.40;;;;;;;15.46;56.14;96770.19;29395;209;63008;-51
2023/06/15 00:03:21;;;;;;;0.40;0.40;;;;;;;15.46;55.81;96770.19;29394;233;64013;-51
2023/06/15 00:03:52;;;;;;;0.40;0.40;;;;;;;15.43;56.01;96769.72;29395;238;63005;-52
2023/06/15 00:04:24;;;;;;;0.40;0.40;;;;;;;15.43;56.31;96772.44;29395;328;63009;-51
2023/06/15 00:04:58;;;;;;;0.40;0.40;;;;;;;15.43;56.16;96775.19;29395;202;63005;-51
2023/06/15 00:05:30;;;;;;;0.40;0.40;;;;;;;15.40;57.34;96778.56;29395;207;63009;-51
2023/06/15 00:06:01;;;;;;;0.50;0.50;;;;;;;15.38;57.27;96774.53;29395;213;63004;-52
2023/06/15 00:06:34;;;;;;;0.40;0.40;;;;;;;15.36;56.79;96774.88;29395;239;63009;-52
2023/06/15 00:07:06;;;;;;;0.40;0.40;;;;;;;15.34;58.31;96777.13;29395;198;63004;-51
2023/06/15 00:07:39;;;;;;;0.40;0.40;;;;;;;15.29;58.48;96782.75;29394;227;64013;-51
2023/06/15 00:08:11;;;;;;;0.40;0.40;;;;;;;15.24;58.83;96784.87;29395;226;63004;-51
2023/06/15 00:08:42;;;;;;;0.50;0.50;;;;;;;15.19;58.59;96780.41;29395;220;63008;-52
2023/06/15 00:09:13;;;;;;;0.50;0.50;;;;;;;15.20;58.06;96773.81;29395;225;63005;-51
2023/06/15 00:09:44;;;;;;;0.50;0.50;;;;;;;15.23;57.93;96780.56;29395;219;63009;-57
2023/06/15 00:10:17;;;;;;;0.40;0.40;;;;;;;15.24;57.38;96777.50;29395;212;63005;-51
2023/06/15 00:10:49;;;;;;;0.40;0.40;;;;;;;15.25;57.16;96772.81;29395;359;63009;-51
2023/06/15 00:11:21;;;;;;;0.50;0.50;;;;;;;15.26;56.83;96772.47;29394;254;64009;-51
2023/06/15 00:11:52;;;;;;;0.47;0.47;;;;;;;15.27;56.78;96776.00;29395;240;63005;-51
2023/06/15 00:12:23;;;;;;;0.40;0.40;;;;;;;15.27;56.94;96774.09;29395;202;63005;-52
2023/06/15 00:12:54;;;;;;;0.50;0.50;;;;;;;15.26;57.42;96777.94;29395;208;63009;-52
2023/06/15 00:13:25;;;;;;;0.50;0.50;;;;;;;15.25;57.92;96779.06;29395;305;63004;-51
2023/06/15 00:13:57;;;;;;;0.40;0.40;;;;;;;15.23;58.70;96781.34;29395;223;63009;-51
2023/06/15 00:14:29;;;;;;;0.40;0.40;;;;;;;15.21;58.79;96778.16;29395;241;63004;-59
2023/06/15 00:15:01;;;;;;;0.40;0.40;;;;;;;15.18;59.97;96789.72;29395;214;63009;-52
2023/06/15 00:15:32;;;;;;;0.40;0.40;;;;;;;15.16;58.74;96781.03;29395;198;63000;-52
2023/06/15 00:16:04;;;;;;;0.40;0.40;;;;;;;15.18;58.32;96784.25;29395;225;63008;-52
2023/06/15 00:16:41;;;;;;;0.40;0.40;;;;;;;15.20;57.55;96783.94;29394;232;64008;-51
2023/06/15 00:17:14;;;;;;;0.50;0.50;;;;;;;15.21;58.10;96783.59;29395;225;63009;-51
2023/06/15 00:17:46;;;;;;;0.40;0.40;;;;;;;15.19;58.71;96785.88;29395;268;63012;-57
2023/06/15 00:18:19;;;;;;;0.40;0.40;;;;;;;15.18;59.13;96788.91;29395;226;63005;-51
2023/06/15 00:18:54;;;;;;;0.40;0.40;;;;;;;15.17;58.09;96782.66;29395;225;63005;-51
2023/06/15 00:19:28;;;;;;;0.45;0.45;;;;;;;15.16;57.99;96780.25;29395;200;64013;-58
2023/06/15 00:20:03;;;;;;;0.50;0.50;;;;;;;15.18;57.72;96775.25;29395;203;63010;-58
2023/06/15 00:20:35;;;;;;;0.50;0.50;;;;;;;15.18;57.93;96784.25;29395;325;63009;-51
2023/06/15 00:21:08;;;;;;;0.40;0.40;;;;;;;15.18;58.32;96778.78;29394;208;64009;-51
2023/06/15 00:21:40;;;;;;;0.40;0.40;;;;;;;15.17;57.73;96779.91;29395;226;63022;-51
2023/06/15 00:22:15;;;;;;;0.50;0.50;;;;;;;15.20;57.77;96778.47;29395;219;63004;-51
2023/06/15 00:22:49;;;;;;;0.50;0.50;;;;;;;15.19;57.15;96780.41;29395;240;63009;-54
2023/06/15 00:23:26;;;;;;;0.50;0.50;;;;;;;15.22;56.88;96777.03;29395;252;63015;-51
2023/06/15 00:23:57;;;;;;;0.40;0.40;;;;;;;15.24;56.77;96776.69;29395;263;63008;-51
2023/06/15 00:24:34;;;;;;;0.40;0.40;;;;;;;15.25;56.72;96773.59;29395;251;63010;-51
2023/06/15 00:25:10;;;;;;;0.40;0.40;;;;;;;15.26;56.48;96775.22;29395;206;63009;-51
2023/06/15 00:25:41;;;;;;;0.40;0.40;;;;;;;15.26;56.76;96774.41;29395;197;63005;-51
2023/06/15 00:26:12;;;;;;;0.50;0.50;;;;;;;15.24;57.74;96790.34;29394;252;64013;-58
2023/06/15 00:26:44;;;;;;;0.40;0.40;;;;;;;15.20;57.74;96784.75;29395;199;63005;-51
2023/06/15 00:27:15;;;;;;;0.40;0.40;;;;;;;15.20;58.15;96787.47;29395;211;63009;-51
2023/06/15 00:27:46;;;;;;;0.40;0.40;;;;;;;15.16;58.48;96791.97;29395;229;63005;-52
2023/06/15 00:28:18;;;;;;;0.40;0.40;;;;;;;15.11;58.64;96783.13;29395;203;63009;-52
2023/06/15 00:28:50;;;;;;;0.40;0.40;;;;;;;15.09;58.19;96784.25;29395;199;63004;-52
2023/06/15 00:29:21;;;;;;;2.55;2.45;;;;;;;15.11;58.89;96788.59;29394;212;64013;-52
2023/06/15 00:29:52;;;;;;;0.40;0.40;;;;;;;15.12;58.70;96787.47;29395;203;63004;-51
2023/06/15 00:30:24;;;;;;;0.40;0.40;;;;;;;15.13;58.50;96787.16;29395;206;63009;-52
2023/06/15 00:30:55;;;;;;;0.40;0.40;;;;;;;15.13;58.05;96781.69;29395;236;63004;-51
2023/06/15 00:31:27;;;;;;;0.40;0.40;;;;;;;15.17;57.34;96782.66;29395;263;63008;-51
2023/06/15 00:31:58;;;;;;;0.40;0.40;;;;;;;15.17;57.79;96782.66;29395;259;63005;-51
2023/06/15 00:32:30;;;;;;;0.40;0.40;;;;;;;15.18;57.67;96778.78;29394;259;64014;-51
2023/06/15 00:33:01;;;;;;;0.40;0.40;;;;;;;15.17;57.81;96782.66;29395;198;63005;-50
2023/06/15 00:33:32;;;;;;;0.40;0.40;;;;;;;15.17;57.81;96782.66;29395;224;63009;-51
2023/06/15 00:34:03;;;;;;;0.40;0.40;;;;;;;15.16;58.66;96791.97;29395;197;63005;-51
2023/06/15 00:34:34;;;;;;;0.40;0.40;;;;;;;15.15;58.49;96781.38;29395;202;63009;-51
2023/06/15 00:35:07;;;;;;;0.40;0.40;;;;;;;15.13;59.54;96792.63;29395;238;63005;-50
2023/06/15 00:35:41;;;;;;;0.50;0.50;;;;;;;15.10;59.05;96793.28;29394;202;64009;-51
2023/06/15 00:36:12;;;;;;;0.45;0.45;;;;;;;15.07;58.42;96788.44;29395;250;63004;-57
2023/06/15 00:36:44;;;;;;;0.40;0.40;;;;;;;15.08;58.18;96785.37;29395;311;63009;-57
2023/06/15 00:37:16;;;;;;;0.40;0.40;;;;;;;15.11;58.55;96788.59;29395;197;63004;-51
2023/06/15 00:37:47;;;;;;;0.40;0.40;;;;;;;15.13;58.21;96786.34;29394;243;64013;-51
2023/06/15 00:38:19;;;;;;;0.40;0.40;;;;;;;15.16;57.54;96783.78;29395;204;63008;-51
2023/06/15 00:38:50;;;;;;;0.40;0.40;;;;;;;15.16;59.15;96794.72;29395;224;63008;-52
2023/06/15 00:39:21;;;;;;;0.40;0.40;;;;;;;15.17;58.81;96798.25;29395;229;63005;-51
2023/06/15 00:39:52;;;;;;;0.40;0.40;;;;;;;15.15;58.76;96789.56;29395;242;63009;-51
2023/06/15 00:40:24;;;;;;;0.40;0.40;;;;;;;15.13;58.79;96787.16;29395;216;63005;-57
2023/06/15 00:40:55;;;;;;;0.40;0.40;;;;;;;15.13;59.55;96786.34;29395;209;63009;-51
2023/06/15 00:41:26;;;;;;;0.40;0.40;;;;;;;15.14;60.47;96799.69;29395;258;63005;-51
2023/06/15 00:41:58;;;;;;;0.40;0.40;;;;;;;15.14;58.69;96794.22;29395;226;63009;-50
2023/06/15 00:42:30;;;;;;;0.45;0.45;;;;;;;15.13;59.07;96787.16;29395;224;63016;-51
2023/06/15 00:43:01;;;;;;;0.40;0.40;;;;;;;15.16;58.60;96783.78;29394;202;64013;-51
2023/06/15 00:43:33;;;;;;;0.40;0.40;;;;;;;15.17;58.11;96793.59;29395;206;63004;-51
2023/06/15 00:44:08;;;;;;;0.40;0.40;;;;;;;15.21;57.97;96788.28;29394;211;64013;-57
2023/06/15 00:44:41;;;;;;;0.40;0.40;;;;;;;15.22;57.69;96785.22;29395;218;63004;-51
2023/06/15 00:45:12;;;;;;;0.40;0.40;;;;;;;15.22;57.90;96785.22;29395;247;63015;-51
2023/06/15 00:45:43;;;;;;;0.40;0.40;;;;;;;15.21;58.56;96794.53;29395;245;63004;-51
2023/06/15 00:46:16;;;;;;;0.40;0.40;;;;;;;15.19;58.27;96785.88;29395;215;63009;-51
2023/06/15 00:46:48;;;;;;;0.40;0.40;;;;;;;15.19;57.84;96780.41;29395;223;63005;-51
2023/06/15 00:47:21;;;;;;;0.40;0.40;;;;;;;15.19;58.17;96783.13;29395;206;63009;-52
2023/06/15 00:47:52;;;;;;;0.40;0.40;;;;;;;15.20;57.94;96787.47;29395;206;63009;-50
2023/06/15 00:48:24;;;;;;;0.40;0.40;;;;;;;15.21;58.44;96789.06;29394;218;64013;-51
2023/06/15 00:48:57;;;;;;;0.40;0.40;;;;;;;15.22;58.67;96789.88;29395;232;63005;-51
2023/06/15 00:49:29;;;;;;;0.40;0.40;;;;;;;15.20;59.32;96789.41;29395;209;63009;-51
2023/06/15 00:50:00;;;;;;;0.43;0.43;;;;;;;15.18;59.84;96791.66;29395;202;63005;-51
2023/06/15 00:50:32;;;;;;;0.40;0.40;;;;;;;15.18;58.66;96795.19;29395;202;63009;-51
2023/06/15 00:51:04;;;;;;;0.40;0.40;;;;;;;15.19;58.27;96794.06;29394;212;64009;-51
2023/06/15 00:51:40;;;;;;;0.40;0.40;;;;;;;15.20;58.47;96786.66;29395;218;63017;-51
2023/06/15 00:52:14;;;;;;;0.43;0.43;;;;;;;15.21;58.37;96794.53;29395;218;63004;-52
2023/06/15 00:52:48;;;;;;;0.40;0.40;;;;;;;15.20;59.19;96797.59;29395;232;63016;-57
2023/06/15 00:53:20;;;;;;;0.40;0.40;;;;;;;15.19;58.43;96791.34;29395;202;63004;-51
2023/06/15 00:53:51;;;;;;;0.40;0.40;;;;;;;15.18;58.77;96795.19;29395;208;63009;-51
2023/06/15 00:54:24;;;;;;;0.40;0.40;;;;;;;15.17;59.12;96799.03;29394;209;64009;-52
2023/06/15 00:54:56;;;;;;;0.50;0.50;;;;;;;15.16;59.93;96802.91;29395;197;63009;-51
2023/06/15 00:55:28;;;;;;;0.40;0.40;;;;;;;15.13;59.42;96798.09;29394;247;64009;-52
2023/06/15 00:56:00;;;;;;;0.40;0.40;;;;;;;15.12;59.89;96796.47;29395;263;63009;-51
2023/06/15 00:56:32;;;;;;;0.40;0.40;;;;;;;15.14;59.82;96802.44;29395;199;63005;-51
2023/06/15 00:57:05;;;;;;;0.40;0.40;;;;;;;15.14;59.31;96794.22;29395;224;63009;-51
2023/06/15 00:57:36;;;;;;;0.40;0.40;;;;;;;15.12;59.16;96795.69;29395;333;63005;-51
2023/06/15 00:58:08;;;;;;;0.40;0.40;;;;;;;15.12;58.75;96796.47;29395;213;63009;-51
2023/06/15 00:58:41;;;;;;;0.40;0.40;;;;;;;15.11;58.66;96797.59;29395;264;63004;-51
2023/06/15 00:59:12;;;;;;;0.43;0.43;;;;;;;15.13;58.46;96802.75;29395;198;63009;-51
2023/06/15 00:59:44;;;;;;;0.40;0.40;;;;;;;15.13;58.82;96798.09;29394;240;64009;-58
2023/06/15 01:00:18;;;;;;;0.40;0.40;;;;;;;15.12;60.09;96801.16;29395;212;63015;-51
2023/06/15 01:00:50;;;;;;;0.40;0.40;;;;;;;15.09;59.50;96800.66;29395;202;63014;-58
2023/06/15 01:01:22;;;;;;;0.40;0.40;;;;;;;15.08;60.49;96800.97;29394;257;64014;-58
2023/06/15 01:01:54;;;;;;;0.40;0.40;;;;;;;15.06;59.93;96801.31;29395;249;63005;-52
2023/06/15 01:02:27;;;;;;;0.50;0.50;;;;;;;15.07;59.32;96804.84;29395;226;63009;-57
2023/06/15 01:02:59;;;;;;;0.50;0.50;;;;;;;15.09;60.46;96808.06;29395;208;63000;-50
2023/06/15 01:03:31;;;;;;;0.50;0.50;;;;;;;15.08;59.36;96801.78;29395;273;63009;-51
2023/06/15 01:04:02;;;;;;;0.40;0.40;;;;;;;15.08;59.41;96801.78;29395;252;63005;-51
2023/06/15 01:04:33;;;;;;;0.40;0.40;;;;;;;15.08;59.14;96790.84;29395;265;63009;-57
2023/06/15 01:05:05;;;;;;;0.50;0.50;;;;;;;15.09;59.20;96797.94;29395;200;63005;-51
2023/06/15 01:05:36;;;;;;;0.40;0.40;;;;;;;15.10;59.04;96801.47;29395;240;63009;-58
2023/06/15 01:06:13;;;;;;;0.40;0.40;;;;;;;15.11;59.52;96799.53;29394;214;64009;-58
2023/06/15 01:06:52;;;;;;;0.40;0.40;;;;;;;15.09;58.95;96800.66;29395;216;63009;-58
2023/06/15 01:07:27;;;;;;;0.50;0.50;;;;;;;15.10;58.95;96801.47;29394;248;64009;-58
2023/06/15 01:08:02;;;;;;;0.50;0.50;;;;;;;15.10;59.60;96798.72;29395;266;63012;-51
2023/06/15 01:08:33;;;;;;;0.40;0.40;;;;;;;15.09;59.30;96792.47;29395;363;63004;-58
2023/06/15 01:09:05;;;;;;;0.40;0.40;;;;;;;15.11;59.47;96800.34;29395;197;63009;-51
2023/06/15 01:09:40;;;;;;;0.40;0.40;;;;;;;15.11;59.35;96800.34;29395;244;63001;-57
2023/06/15 01:10:12;;;;;;;0.50;0.50;;;;;;;15.11;59.06;96794.06;29395;218;63009;-51
2023/06/15 01:10:45;;;;;;;0.40;0.40;;;;;;;15.13;59.00;96794.56;29395;256;63005;-51
2023/06/15 01:11:17;;;;;;;0.50;0.50;;;;;;;15.12;59.29;96796.47;29395;267;63009;-58
2023/06/15 01:11:53;;;;;;;0.40;0.40;;;;;;;15.08;59.88;96800.97;29394;253;64009;-58
2023/06/15 01:12:28;;;;;;;0.40;0.40;;;;;;;15.05;60.62;96804.34;29395;218;63009;-58
2023/06/15 01:13:02;;;;;;;0.50;0.50;;;;;;;15.02;60.11;96802.28;29395;197;63014;-51
2023/06/15 01:13:35;;;;;;;0.40;0.40;;;;;;;15.01;59.82;96796.00;29394;236;64013;-51
2023/06/15 01:14:08;;;;;;;0.50;0.50;;;;;;;15.00;59.67;96794.41;29395;263;63004;-52
2023/06/15 01:14:40;;;;;;;0.50;0.50;;;;;;;15.00;59.04;96799.06;29395;229;63009;-58
2023/06/15 01:15:13;;;;;;;0.50;0.50;;;;;;;14.99;59.22;96787.31;29395;267;63004;-51
2023/06/15 01:15:44;;;;;;;0.50;0.50;;;;;;;14.99;58.81;96790.06;29395;211;63024;-58
2023/06/15 01:16:28;;;;;;;0.50;0.50;;;;;;;15.01;59.40;96789.75;29395;197;63005;-52
2023/06/15 01:17:08;;;;;;;0.40;0.40;;;;;;;15.02;58.95;96785.88;29395;246;63018;-58
2023/06/15 01:17:46;;;;;;;0.40;0.40;;;;;;;15.03;59.08;96792.94;29417;233;63005;-59
2023/06/15 01:18:20;;;;;;;0.40;0.40;;;;;;;15.02;58.54;96791.34;29395;218;63009;-52
2023/06/15 01:18:56;;;;;;;0.40;0.40;;;;;;;15.03;58.80;96784.75;29394;237;64009;-51
2023/06/15 01:20:03;;;;;;;0.50;0.50;;;;;;;14.99;59.13;96792.78;29395;224;63027;-58
2023/06/15 01:20:39;;;;;;;0.75;0.75;;;;;;;14.94;59.60;96792.94;29395;244;63004;-51
2023/06/15 01:21:12;;;;;;;0.43;0.43;;;;;;;14.92;59.14;96787.00;29395;247;63009;-51
2023/06/15 01:21:45;;;;;;;0.43;0.43;;;;;;;14.90;60.01;96794.72;29395;209;63004;-58
2023/06/15 01:23:01;;;;;;;0.47;0.47;;;;;;;14.88;60.15;96798.94;29395;239;63009;-51
2023/06/15 01:23:50;;;;;;;0.50;0.50;;;;;;;14.86;60.03;96790.25;29394;220;64008;-58
2023/06/15 01:24:31;;;;;;;0.50;0.50;;;;;;;14.87;59.30;96789.12;29395;395;63009;-51
2023/06/15 01:25:10;;;;;;;0.50;0.50;;;;;;;14.89;59.64;96781.41;29417;256;63011;-51
2023/06/15 01:25:59;;;;;;;0.40;0.40;;;;;;;14.91;59.22;96787.34;29395;255;63009;-51
2023/06/15 01:26:32;;;;;;;0.40;0.40;;;;;;;14.92;59.03;96783.47;29395;240;63005;-58
2023/06/15 01:27:05;;;;;;;0.50;0.50;;;;;;;14.92;58.56;96784.28;29395;256;63009;-59
2023/06/15 01:27:39;;;;;;;0.50;0.50;;;;;;;14.93;58.93;96787.81;29395;218;63005;-51
2023/06/15 01:28:13;;;;;;;0.50;0.50;;;;;;;14.92;59.44;96786.22;29395;211;63009;-51
2023/06/15 01:28:47;;;;;;;0.77;0.77;;;;;;;14.91;58.88;96785.41;29394;254;64009;-50
2023/06/15 01:29:21;;;;;;;0.50;0.50;;;;;;;14.92;59.57;96781.53;29395;430;63009;-59
2023/06/15 01:29:57;;;;;;;0.47;0.47;;;;;;;14.91;59.25;96784.59;29395;215;63004;-58
2023/06/15 01:30:33;;;;;;;0.50;0.50;;;;;;;14.93;59.01;96783.16;29394;222;64013;-51
2023/06/15 01:31:05;;;;;;;0.50;0.50;;;;;;;14.93;58.58;96785.06;29394;211;64008;-58
2023/06/15 01:31:38;;;;;;;0.50;0.50;;;;;;;14.94;59.15;96790.22;29395;241;63009;-51
2023/06/15 01:32:10;;;;;;;0.50;0.50;;;;;;;14.92;58.96;96780.75;29395;242;63005;-58
2023/06/15 01:32:41;;;;;;;0.40;0.40;;;;;;;14.89;59.02;96786.88;29395;202;63009;-58
2023/06/15 01:33:14;;;;;;;0.50;0.50;;;;;;;14.88;59.30;96785.28;29395;204;63005;-51
2023/06/15 01:33:50;;;;;;;0.50;0.50;;;;;;;14.85;59.59;96794.09;29394;238;64013;-51
2023/06/15 01:34:22;;;;;;;0.50;0.50;;;;;;;14.83;59.79;96788.16;29395;232;63005;-59
2023/06/15 01:34:54;;;;;;;0.40;0.40;;;;;;;14.81;59.41;96785.75;29395;267;63009;-58
2023/06/15 01:35:27;;;;;;;0.40;0.40;;;;;;;14.81;59.66;96784.94;29395;261;63005;-58
2023/06/15 01:35:58;;;;;;;0.50;0.50;;;;;;;14.80;59.36;96795.06;29395;213;63009;-58
2023/06/15 01:36:30;;;;;;;0.50;0.50;;;;;;;14.80;59.77;96789.59;29395;267;63004;-52
2023/06/15 01:37:03;;;;;;;0.50;0.50;;;;;;;14.80;59.22;96794.28;29395;227;63009;-57
2023/06/15 01:37:34;;;;;;;0.40;0.40;;;;;;;14.79;60.11;96792.66;29395;226;63004;-58
2023/06/15 01:38:05;;;;;;;0.50;0.50;;;;;;;14.78;60.12;96788.31;29394;225;64013;-58
2023/06/15 01:38:38;;;;;;;0.50;0.50;;;;;;;14.77;59.53;96783.97;29394;242;64008;-51
2023/06/15 01:39:10;;;;;;;0.50;0.50;;;;;;;14.78;59.29;96791.06;29395;203;63009;-58
2023/06/15 01:39:42;;;;;;;0.50;0.50;;;;;;;14.78;59.12;96791.06;29395;217;63005;-51
2023/06/15 01:40:15;;;;;;;0.50;0.50;;;;;;;14.78;58.96;96791.84;29395;243;63013;-59
2023/06/15 01:40:50;;;;;;;0.50;0.50;;;;;;;14.80;59.42;96788.81;29395;213;63005;-59
2023/06/15 01:41:25;;;;;;;0.40;0.40;;;;;;;14.80;58.83;96791.53;29395;236;63009;-52
2023/06/15 01:41:56;;;;;;;0.43;0.43;;;;;;;14.80;59.28;96791.53;29395;270;63005;-58
2023/06/15 01:42:28;;;;;;;0.50;0.50;;;;;;;14.74;59.34;96794.44;29395;241;63009;-58
2023/06/15 01:43:01;;;;;;;0.50;0.50;;;;;;;14.72;59.21;96793.94;29394;197;64009;-58
2023/06/15 01:43:34;;;;;;;0.45;0.45;;;;;;;14.70;59.81;96792.66;29395;250;63004;-57
2023/06/15 01:44:06;;;;;;;0.50;0.50;;;;;;;14.69;59.86;96794.59;29394;278;64009;-51
2023/06/15 01:44:40;;;;;;;0.40;0.40;;;;;;;14.62;61.42;96799.72;29395;205;63009;-50
2023/06/15 01:45:13;;;;;;;0.40;0.40;;;;;;;14.59;61.03;96797.63;29394;264;64008;-57
2023/06/15 01:45:47;;;;;;;0.40;0.40;;;;;;;14.59;60.50;96797.63;29395;237;63008;-50
2023/06/15 01:46:19;;;;;;;0.43;0.43;;;;;;;14.59;60.44;96797.63;29395;253;63004;-51
2023/06/15 01:46:51;;;;;;;0.45;0.45;;;;;;;14.60;60.27;96787.50;29395;238;63009;-50
2023/06/15 01:48:32;;;;;;;0.46;0.46;;;;;;;14.62;59.96;96799.72;88174;215;64004;-59
2023/06/15 01:49:04;;;;;;;0.40;0.40;;;;;;;14.62;59.85;96788.00;29394;197;64009;-59
2023/06/15 01:49:37;;;;;;;0.50;0.50;;;;;;;14.62;59.49;96791.53;29394;265;64009;-57
2023/06/15 01:50:10;;;;;;;0.50;0.50;;;;;;;14.62;59.54;96797.00;29395;290;63009;-58
2023/06/15 01:50:42;;;;;;;0.50;0.50;;;;;;;14.61;60.43;96789.91;29395;243;63005;-58
2023/06/15 01:51:15;;;;;;;0.50;0.50;;;;;;;14.60;59.99;96795.69;29395;202;63009;-58
2023/06/15 01:51:46;;;;;;;0.50;0.50;;;;;;;14.59;59.77;96800.34;29394;221;64009;-59
2023/06/15 01:52:19;;;;;;;0.50;0.50;;;;;;;14.59;59.97;96786.69;29395;230;63009;-51
2023/06/15 01:52:50;;;;;;;0.50;0.50;;;;;;;14.59;59.42;96794.91;29395;254;63004;-58
2023/06/15 01:53:22;;;;;;;0.50;0.50;;;;;;;14.60;59.28;96787.50;29395;444;63009;-58
2023/06/15 01:53:53;;;;;;;0.50;0.50;;;;;;;14.60;59.61;96795.69;29395;263;63009;-58
2023/06/15 01:54:25;;;;;;;0.40;0.40;;;;;;;14.59;59.25;96792.16;29395;205;63009;-59
2023/06/15 01:54:59;;;;;;;0.50;0.50;;;;;;;14.59;59.56;96783.16;29395;198;63004;-58
2023/06/15 01:55:34;;;;;;;0.50;0.50;;;;;;;14.57;59.39;96791.69;29394;243;64014;-57
2023/06/15 01:56:05;;;;;;;0.50;0.50;;;;;;;14.56;59.12;96790.06;29395;203;63005;-58
2023/06/15 01:56:37;;;;;;;0.50;0.50;;;;;;;14.55;59.16;96796.69;29395;225;63009;-58
2023/06/15 01:57:08;;;;;;;0.50;0.50;;;;;;;14.51;59.32;96779.34;29395;275;63005;-57
2023/06/15 01:57:40;;;;;;;0.50;0.50;;;;;;;14.53;59.22;96782.56;29395;241;63009;-57
2023/06/15 01:58:16;;;;;;;0.40;0.40;;;;;;;14.53;59.53;96788.00;29395;290;63008;-58
2023/06/15 01:58:47;;;;;;;0.50;0.50;;;;;;;14.52;59.23;96789.12;29395;197;63009;-50
2023/06/15 01:59:18;;;;;;;0.40;0.40;;;;;;;14.52;59.66;96791.87;29395;241;63005;-58
2023/06/15 01:59:54;;;;;;;0.50;0.50;;;;;;;14.50;59.43;96796.03;29395;218;63009;-57
2023/06/15 02:00:27;;;;;;;0.40;0.40;;;;;;;14.48;59.50;96793.63;29394;199;64009;-51
2023/06/15 02:00:58;;;;;;;0.50;0.50;;;;;;;14.48;59.74;96792.81;29395;241;63009;-58
2023/06/15 02:01:35;;;;;;;0.40;0.40;;;;;;;14.46;59.36;96797.78;29395;221;63004;-58
2023/06/15 02:02:10;;;;;;;0.50;0.50;;;;;;;14.47;59.53;96794.75;29394;223;64013;-58
2023/06/15 02:02:41;;;;;;;0.50;0.50;;;;;;;14.45;59.57;96788.00;29395;221;63004;-50
2023/06/15 02:03:15;;;;;;;0.50;0.50;;;;;;;14.45;59.30;96794.25;29395;240;63019;-58
2023/06/15 02:03:46;;;;;;;0.50;0.50;;;;;;;14.45;59.47;96797.00;29395;247;63005;-58
2023/06/15 02:04:17;;;;;;;0.40;0.40;;;;;;;14.46;59.57;96790.41;29395;200;63009;-57
2023/06/15 02:04:49;;;;;;;0.50;0.50;;;;;;;14.44;59.51;96792.66;29395;197;63005;-58
2023/06/15 02:05:24;;;;;;;0.45;0.45;;;;;;;14.43;59.94;96799.22;29395;237;63009;-57
2023/06/15 02:05:55;;;;;;;0.50;0.50;;;;;;;14.41;59.88;96793.28;29395;248;63005;-50
2023/06/15 02:06:28;;;;;;;0.40;0.40;;;;;;;14.43;59.97;96795.69;29395;210;63009;-59
2023/06/15 02:06:59;;;;;;;0.50;0.50;;;;;;;14.43;59.68;96796.50;29394;339;64009;-51
2023/06/15 02:07:31;;;;;;;0.50;0.50;;;;;;;14.44;59.63;96798.13;29395;231;63009;-58
2023/06/15 02:08:02;;;;;;;0.50;0.50;;;;;;;14.43;59.50;96796.50;29395;423;63010;-58
2023/06/15 02:08:33;;;;;;;0.40;0.40;;;;;;;14.43;59.54;96796.50;29395;258;63014;-57
2023/06/15 02:09:06;;;;;;;0.50;0.50;;;;;;;14.44;59.50;96792.66;29395;197;63004;-57
2023/06/15 02:09:37;;;;;;;0.50;0.50;;;;;;;14.44;59.45;96792.66;29395;201;63018;-57
2023/06/15 02:10:09;;;;;;;0.50;0.50;;;;;;;14.44;59.58;96795.38;29395;244;63005;-59
2023/06/15 02:10:42;;;;;;;0.50;0.50;;;;;;;14.44;59.33;96792.66;29395;213;63009;-58
2023/06/15 02:11:15;;;;;;;0.50;0.50;;;;;;;14.44;59.32;96792.66;29395;237;63005;-57
2023/06/15 02:11:47;;;;;;;0.50;0.50;;;;;;;14.43;59.57;96791.03;29395;239;63015;-59
2023/06/15 02:12:19;;;;;;;0.50;0.50;;;;;;;14.43;59.27;96791.03;29394;250;64009;-57
2023/06/15 02:12:51;;;;;;;0.43;0.43;;;;;;;14.43;59.34;96790.25;29394;197;64013;-58
2023/06/15 02:13:22;;;;;;;0.50;0.50;;;;;;;14.41;59.43;96785.91;29395;227;63005;-57
2023/06/15 02:13:53;;;;;;;0.50;0.50;;;;;;;14.42;59.71;96786.72;29395;202;63009;-58
2023/06/15 02:14:25;;;;;;;0.50;0.50;;;;;;;14.42;60.04;96794.91;29395;204;63004;-57
2023/06/15 02:14:57;;;;;;;0.50;0.50;;;;;;;14.40;60.07;96794.38;29395;196;63009;-51
2023/06/15 02:15:29;;;;;;;0.50;0.50;;;;;;;14.37;59.78;96790.38;29394;301;64009;-57
2023/06/15 02:16:01;;;;;;;0.50;0.50;;;;;;;14.38;59.71;96789.25;29395;199;63009;-57
2023/06/15 02:16:33;;;;;;;0.50;0.50;;;;;;;14.39;59.92;96795.50;29394;253;64008;-58
2023/06/15 02:17:05;;;;;;;0.40;0.40;;;;;;;14.40;59.69;96797.13;29395;259;63026;-58
2023/06/15 02:17:39;;;;;;;0.50;0.50;;;;;;;14.39;59.78;96790.84;29394;209;64009;-58
2023/06/15 02:18:14;;;;;;;0.50;0.50;;;;;;;14.39;60.00;96787.31;29395;197;63009;-51
2023/06/15 02:18:47;;;;;;;0.50;0.50;;;;;;;14.38;59.93;96793.91;29395;229;63005;-50
2023/06/15 02:19:21;;;;;;;0.50;0.50;;;;;;;14.37;59.67;96798.56;29395;205;63009;-57
2023/06/15 02:19:52;;;;;;;0.50;0.50;;;;;;;14.36;60.35;96799.66;29395;210;63005;-57
2023/06/15 02:20:23;;;;;;;0.50;0.50;;;;;;;14.34;59.88;96793.72;29394;232;64013;-58
2023/06/15 02:20:55;;;;;;;0.43;0.43;;;;;;;14.34;60.12;96798.38;29395;199;63005;-58
2023/06/15 02:21:27;;;;;;;0.50;0.50;;;;;;;14.33;60.25;96803.03;29395;219;63009;-58
2023/06/15 02:21:58;;;;;;;0.50;0.50;;;;;;;14.32;60.34;96792.44;29395;246;63004;-50
2023/06/15 02:22:30;;;;;;;0.50;0.50;;;;;;;14.33;60.23;96794.03;29394;217;64013;-51
2023/06/15 02:23:02;;;;;;;0.50;0.50;;;;;;;14.31;60.26;96797.09;29395;311;63004;-59
2023/06/15 02:23:37;;;;;;;0.50;0.50;;;;;;;14.33;60.22;96796.78;29395;250;63009;-57
2023/06/15 02:24:08;;;;;;;0.40;0.40;;;;;;;14.32;60.06;96797.91;29395;254;63004;-58
2023/06/15 02:24:43;;;;;;;0.50;0.50;;;;;;;14.32;59.84;96795.16;29395;229;63008;-50
2023/06/15 02:25:14;;;;;;;0.50;0.50;;;;;;;14.30;59.93;96800.13;29395;211;63005;-58
2023/06/15 02:25:45;;;;;;;0.50;0.50;;;;;;;14.30;60.29;96791.94;29394;200;64014;-59
2023/06/15 02:26:16;;;;;;;0.50;0.50;;;;;;;14.28;60.53;96805.09;29395;243;63017;-57
2023/06/15 02:26:48;;;;;;;0.40;0.40;;;;;;;14.27;60.17;96793.38;29395;203;63009;-51
2023/06/15 02:27:19;;;;;;;0.50;0.50;;;;;;;14.26;60.32;96796.44;29395;265;63005;-58
2023/06/15 02:27:51;;;;;;;0.50;0.50;;;;;;;14.26;60.08;96796.44;29395;259;63009;-58
2023/06/15 02:28:24;;;;;;;0.50;0.50;;;;;;;14.22;61.18;96796.25;29395;202;63005;-51
2023/06/15 02:28:55;;;;;;;0.50;0.50;;;;;;;14.19;61.01;96805.13;29394;258;64012;-59
2023/06/15 02:29:29;;;;;;;0.50;0.50;;;;;;;14.20;60.38;96797.72;29395;202;63004;-58
2023/06/15 02:30:01;;;;;;;0.50;0.50;;;;;;;14.20;60.60;96801.28;29395;229;63009;-57
2023/06/15 02:30:32;;;;;;;0.50;0.50;;;;;;;14.21;60.50;96799.31;29394;297;64009;-58
2023/06/15 02:31:03;;;;;;;0.50;0.50;;;;;;;14.19;60.27;96793.41;29395;196;63016;-57
2023/06/15 02:31:37;;;;;;;0.50;0.50;;;;;;;14.19;60.06;96798.84;29395;212;63004;-58
2023/06/15 02:32:09;;;;;;;0.50;0.50;;;;;;;14.18;60.49;96800.78;29395;226;63022;-60
2023/06/15 02:32:42;;;;;;;0.47;0.47;;;;;;;14.18;60.71;96798.06;29394;232;64005;-60
2023/06/15 02:33:13;;;;;;;0.50;0.50;;;;;;;14.19;60.44;96796.12;29395;251;63009;-58
2023/06/15 02:33:46;;;;;;;0.50;0.50;;;;;;;14.19;60.68;96802.38;29395;210;63005;-50
2023/06/15 02:34:17;;;;;;;0.40;0.40;;;;;;;14.18;60.35;96802.69;29395;202;63009;-59
2023/06/15 02:34:48;;;;;;;0.50;0.50;;;;;;;14.18;60.84;96791.78;29394;226;64005;-57
2023/06/15 02:35:21;;;;;;;0.40;0.40;;;;;;;14.17;60.76;96799.16;29394;220;64013;-59
2023/06/15 02:35:53;;;;;;;0.40;0.40;;;;;;;14.15;60.39;96800.59;29394;208;64009;-58
2023/06/15 02:36:25;;;;;;;0.50;0.50;;;;;;;14.15;60.51;96800.59;29394;267;64007;-60
2023/06/15 02:36:58;;;;;;;0.50;0.50;;;;;;;14.14;60.43;96801.72;29395;237;63004;-60
2023/06/15 02:37:33;;;;;;;0.50;0.50;;;;;;;14.13;60.66;96800.13;29395;202;63009;-59
2023/06/15 02:38:05;;;;;;;0.50;0.50;;;;;;;14.13;60.59;96797.38;29395;221;63004;-59